sensor_id;sensor_type;location;lat;lon;timestamp;P1;durP1;ratioP1;P2;durP2;ratioP2
77705;SDS011;66874;45.274;5.880;2024-02-28T00:00:09;12.80;;;6.45;;
77705;SDS011;66874;45.274;5.880;2024-02-28T00:02:36;13.40;;;7.07;;
77705;SDS011;66874;45.274;5.880;2024-02-28T00:05:01;12.82;;;7.13;;
77705;SDS011;66874;45.274;5.880;2024-02-28T00:07:27;15.57;;;7.88;;
77705;SDS011;66874;45.274;5.880;2024-02-28T00:09:52;9.63;;;6.30;;
77705;SDS011;66874;45.274;5.880;2024-02-28T00:12:22;10.02;;;6.82;;
77705;SDS011;66874;45.274;5.880;2024-02-28T00:14:50;14.73;;;8.50;;
77705;SDS011;66874;45.274;5.880;2024-02-28T00:17:15;10.75;;;6.82;;
77705;SDS011;66874;45.274;5.880;2024-02-28T00:19:40;10.85;;;6.70;;
77705;SDS011;66874;45.274;5.880;2024-02-28T00:22:07;11.20;;;6.22;;
77705;SDS011;66874;45.274;5.880;2024-02-28T00:24:33;15.70;;;7.43;;
77705;SDS011;66874;45.274;5.880;2024-02-28T00:26:58;13.57;;;8.07;;
77705;SDS011;66874;45.274;5.880;2024-02-28T00:29:23;11.55;;;7.00;;
77705;SDS011;66874;45.274;5.880;2024-02-28T00:31:49;13.77;;;7.45;;
77705;SDS011;66874;45.274;5.880;2024-02-28T00:34:14;13.40;;;7.25;;
77705;SDS011;66874;45.274;5.880;2024-02-28T00:36:40;17.27;;;8.05;;
77705;SDS011;66874;45.274;5.880;2024-02-28T00:39:05;13.75;;;7.45;;
77705;SDS011;66874;45.274;5.880;2024-02-28T00:41:31;15.65;;;7.03;;
77705;SDS011;66874;45.274;5.880;2024-02-28T00:43:56;13.57;;;7.60;;
77705;SDS011;66874;45.274;5.880;2024-02-28T00:46:21;13.75;;;8.05;;
77705;SDS011;66874;45.274;5.880;2024-02-28T00:48:47;13.77;;;7.45;;
77705;SDS011;66874;45.274;5.880;2024-02-28T00:51:12;11.35;;;7.20;;
77705;SDS011;66874;45.274;5.880;2024-02-28T00:53:37;12.95;;;7.07;;
77705;SDS011;66874;45.274;5.880;2024-02-28T00:56:04;12.13;;;7.88;;
77705;SDS011;66874;45.274;5.880;2024-02-28T00:58:30;13.45;;;7.47;;
77705;SDS011;66874;45.274;5.880;2024-02-28T01:00:55;11.88;;;7.00;;
77705;SDS011;66874;45.274;5.880;2024-02-28T01:03:22;13.38;;;6.75;;
77705;SDS011;66874;45.274;5.880;2024-02-28T01:05:48;13.10;;;6.72;;
77705;SDS011;66874;45.274;5.880;2024-02-28T01:08:15;13.43;;;7.45;;
77705;SDS011;66874;45.274;5.880;2024-02-28T01:10:42;13.97;;;8.00;;
77705;SDS011;66874;45.274;5.880;2024-02-28T01:13:08;18.52;;;7.40;;
77705;SDS011;66874;45.274;5.880;2024-02-28T01:15:33;12.43;;;7.57;;
77705;SDS011;66874;45.274;5.880;2024-02-28T01:17:58;14.73;;;7.63;;
77705;SDS011;66874;45.274;5.880;2024-02-28T01:20:24;15.27;;;7.78;;
77705;SDS011;66874;45.274;5.880;2024-02-28T01:22:49;14.32;;;7.38;;
77705;SDS011;66874;45.274;5.880;2024-02-28T01:25:14;12.55;;;8.15;;
77705;SDS011;66874;45.274;5.880;2024-02-28T01:27:40;12.15;;;7.15;;
77705;SDS011;66874;45.274;5.880;2024-02-28T01:30:05;15.23;;;7.65;;
77705;SDS011;66874;45.274;5.880;2024-02-28T01:32:31;14.52;;;7.72;;
77705;SDS011;66874;45.274;5.880;2024-02-28T01:34:57;13.20;;;7.60;;
77705;SDS011;66874;45.274;5.880;2024-02-28T01:37:22;13.52;;;6.85;;
77705;SDS011;66874;45.274;5.880;2024-02-28T01:39:47;14.13;;;6.95;;
77705;SDS011;66874;45.274;5.880;2024-02-28T01:42:16;13.98;;;7.07;;
77705;SDS011;66874;45.274;5.880;2024-02-28T01:44:43;15.93;;;7.68;;
77705;SDS011;66874;45.274;5.880;2024-02-28T01:47:12;12.05;;;6.95;;
77705;SDS011;66874;45.274;5.880;2024-02-28T01:49:37;15.02;;;7.55;;
77705;SDS011;66874;45.274;5.880;2024-02-28T01:52:03;14.90;;;8.20;;
77705;SDS011;66874;45.274;5.880;2024-02-28T01:54:29;15.05;;;8.00;;
77705;SDS011;66874;45.274;5.880;2024-02-28T01:56:56;16.27;;;8.25;;
77705;SDS011;66874;45.274;5.880;2024-02-28T01:59:22;14.70;;;7.68;;
77705;SDS011;66874;45.274;5.880;2024-02-28T02:01:50;13.13;;;7.68;;
77705;SDS011;66874;45.274;5.880;2024-02-28T02:04:15;12.82;;;7.53;;
77705;SDS011;66874;45.274;5.880;2024-02-28T02:06:42;13.05;;;8.27;;
77705;SDS011;66874;45.274;5.880;2024-02-28T02:09:08;14.77;;;7.88;;
77705;SDS011;66874;45.274;5.880;2024-02-28T02:11:34;13.18;;;7.15;;
77705;SDS011;66874;45.274;5.880;2024-02-28T02:14:00;13.35;;;7.50;;
77705;SDS011;66874;45.274;5.880;2024-02-28T02:16:25;11.20;;;7.32;;
77705;SDS011;66874;45.274;5.880;2024-02-28T02:18:51;14.48;;;8.15;;
77705;SDS011;66874;45.274;5.880;2024-02-28T02:21:20;14.18;;;7.55;;
77705;SDS011;66874;45.274;5.880;2024-02-28T02:23:49;13.52;;;7.35;;
77705;SDS011;66874;45.274;5.880;2024-02-28T02:26:14;14.48;;;8.30;;
77705;SDS011;66874;45.274;5.880;2024-02-28T02:28:39;14.32;;;7.30;;
77705;SDS011;66874;45.274;5.880;2024-02-28T02:31:05;14.48;;;8.13;;
77705;SDS011;66874;45.274;5.880;2024-02-28T02:33:30;19.80;;;8.23;;
77705;SDS011;66874;45.274;5.880;2024-02-28T02:35:56;13.23;;;7.78;;
77705;SDS011;66874;45.274;5.880;2024-02-28T02:38:21;16.85;;;7.72;;
77705;SDS011;66874;45.274;5.880;2024-02-28T02:40:50;13.73;;;7.78;;
77705;SDS011;66874;45.274;5.880;2024-02-28T02:43:16;14.77;;;8.43;;
77705;SDS011;66874;45.274;5.880;2024-02-28T02:45:41;12.88;;;7.53;;
77705;SDS011;66874;45.274;5.880;2024-02-28T02:48:08;14.60;;;8.43;;
77705;SDS011;66874;45.274;5.880;2024-02-28T02:50:33;13.50;;;8.27;;
77705;SDS011;66874;45.274;5.880;2024-02-28T02:52:58;14.75;;;7.97;;
77705;SDS011;66874;45.274;5.880;2024-02-28T02:55:24;17.15;;;8.70;;
77705;SDS011;66874;45.274;5.880;2024-02-28T02:57:49;14.10;;;8.05;;
77705;SDS011;66874;45.274;5.880;2024-02-28T03:00:15;13.85;;;8.05;;
77705;SDS011;66874;45.274;5.880;2024-02-28T03:02:40;16.08;;;8.25;;
77705;SDS011;66874;45.274;5.880;2024-02-28T03:05:06;13.77;;;7.75;;
77705;SDS011;66874;45.274;5.880;2024-02-28T03:07:32;15.32;;;8.45;;
77705;SDS011;66874;45.274;5.880;2024-02-28T03:09:57;14.45;;;8.73;;
77705;SDS011;66874;45.274;5.880;2024-02-28T03:12:23;14.82;;;8.50;;
77705;SDS011;66874;45.274;5.880;2024-02-28T03:14:48;14.60;;;8.63;;
77705;SDS011;66874;45.274;5.880;2024-02-28T03:17:14;13.10;;;7.70;;
77705;SDS011;66874;45.274;5.880;2024-02-28T03:19:42;15.48;;;8.18;;
77705;SDS011;66874;45.274;5.880;2024-02-28T03:22:07;14.60;;;8.25;;
77705;SDS011;66874;45.274;5.880;2024-02-28T03:24:33;17.95;;;10.13;;
77705;SDS011;66874;45.274;5.880;2024-02-28T03:27:00;15.45;;;8.48;;
77705;SDS011;66874;45.274;5.880;2024-02-28T03:29:29;14.52;;;9.30;;
77705;SDS011;66874;45.274;5.880;2024-02-28T03:31:54;15.73;;;8.15;;
77705;SDS011;66874;45.274;5.880;2024-02-28T03:34:20;20.38;;;8.57;;
77705;SDS011;66874;45.274;5.880;2024-02-28T03:36:46;14.90;;;7.88;;
77705;SDS011;66874;45.274;5.880;2024-02-28T03:39:11;17.35;;;8.65;;
77705;SDS011;66874;45.274;5.880;2024-02-28T03:41:37;16.42;;;7.93;;
77705;SDS011;66874;45.274;5.880;2024-02-28T03:44:03;13.98;;;8.45;;
77705;SDS011;66874;45.274;5.880;2024-02-28T03:46:28;15.20;;;8.95;;
77705;SDS011;66874;45.274;5.880;2024-02-28T03:48:54;19.20;;;9.25;;
77705;SDS011;66874;45.274;5.880;2024-02-28T03:51:19;15.63;;;8.65;;
77705;SDS011;66874;45.274;5.880;2024-02-28T03:53:44;18.73;;;9.18;;
77705;SDS011;66874;45.274;5.880;2024-02-28T03:56:10;16.30;;;8.55;;
77705;SDS011;66874;45.274;5.880;2024-02-28T03:58:36;15.73;;;8.00;;
77705;SDS011;66874;45.274;5.880;2024-02-28T04:01:02;14.30;;;8.07;;
77705;SDS011;66874;45.274;5.880;2024-02-28T04:03:27;16.45;;;9.35;;
77705;SDS011;66874;45.274;5.880;2024-02-28T04:05:52;14.25;;;9.18;;
77705;SDS011;66874;45.274;5.880;2024-02-28T04:08:18;15.23;;;9.32;;
77705;SDS011;66874;45.274;5.880;2024-02-28T04:10:43;14.30;;;8.68;;
77705;SDS011;66874;45.274;5.880;2024-02-28T04:13:08;17.08;;;9.45;;
77705;SDS011;66874;45.274;5.880;2024-02-28T04:15:34;16.10;;;9.05;;
77705;SDS011;66874;45.274;5.880;2024-02-28T04:17:59;18.30;;;9.55;;
77705;SDS011;66874;45.274;5.880;2024-02-28T04:20:25;15.02;;;8.95;;
77705;SDS011;66874;45.274;5.880;2024-02-28T04:22:50;18.17;;;9.65;;
77705;SDS011;66874;45.274;5.880;2024-02-28T04:25:17;18.30;;;10.35;;
77705;SDS011;66874;45.274;5.880;2024-02-28T04:27:42;17.60;;;9.68;;
77705;SDS011;66874;45.274;5.880;2024-02-28T04:30:09;17.90;;;9.15;;
77705;SDS011;66874;45.274;5.880;2024-02-28T04:32:34;15.13;;;8.48;;
77705;SDS011;66874;45.274;5.880;2024-02-28T04:35:00;18.85;;;9.70;;
77705;SDS011;66874;45.274;5.880;2024-02-28T04:37:26;15.25;;;9.15;;
77705;SDS011;66874;45.274;5.880;2024-02-28T04:39:51;15.15;;;8.95;;
77705;SDS011;66874;45.274;5.880;2024-02-28T04:42:16;15.73;;;8.95;;
77705;SDS011;66874;45.274;5.880;2024-02-28T04:44:42;20.63;;;9.77;;
77705;SDS011;66874;45.274;5.880;2024-02-28T04:47:07;17.65;;;9.63;;
77705;SDS011;66874;45.274;5.880;2024-02-28T04:49:32;19.30;;;10.35;;
77705;SDS011;66874;45.274;5.880;2024-02-28T04:51:58;17.85;;;10.07;;
77705;SDS011;66874;45.274;5.880;2024-02-28T04:54:23;15.45;;;9.32;;
77705;SDS011;66874;45.274;5.880;2024-02-28T04:56:49;19.67;;;10.85;;
77705;SDS011;66874;45.274;5.880;2024-02-28T04:59:16;20.33;;;10.40;;
77705;SDS011;66874;45.274;5.880;2024-02-28T05:01:41;20.65;;;9.48;;
77705;SDS011;66874;45.274;5.880;2024-02-28T05:04:08;15.07;;;8.43;;
77705;SDS011;66874;45.274;5.880;2024-02-28T05:06:34;16.88;;;9.80;;
77705;SDS011;66874;45.274;5.880;2024-02-28T05:08:59;18.95;;;9.32;;
77705;SDS011;66874;45.274;5.880;2024-02-28T05:11:25;17.42;;;9.30;;
77705;SDS011;66874;45.274;5.880;2024-02-28T05:13:50;19.10;;;10.43;;
77705;SDS011;66874;45.274;5.880;2024-02-28T05:16:16;18.13;;;10.38;;
77705;SDS011;66874;45.274;5.880;2024-02-28T05:18:41;15.32;;;9.25;;
77705;SDS011;66874;45.274;5.880;2024-02-28T05:21:07;17.38;;;10.50;;
77705;SDS011;66874;45.274;5.880;2024-02-28T05:23:32;18.42;;;9.50;;
77705;SDS011;66874;45.274;5.880;2024-02-28T05:25:58;17.15;;;9.90;;
77705;SDS011;66874;45.274;5.880;2024-02-28T05:28:28;16.92;;;9.15;;
77705;SDS011;66874;45.274;5.880;2024-02-28T05:30:54;17.38;;;9.77;;
77705;SDS011;66874;45.274;5.880;2024-02-28T05:33:20;16.33;;;8.95;;
77705;SDS011;66874;45.274;5.880;2024-02-28T05:35:45;15.55;;;8.50;;
77705;SDS011;66874;45.274;5.880;2024-02-28T05:38:10;15.68;;;9.40;;
77705;SDS011;66874;45.274;5.880;2024-02-28T05:40:36;18.05;;;9.68;;
77705;SDS011;66874;45.274;5.880;2024-02-28T05:43:01;16.85;;;8.80;;
77705;SDS011;66874;45.274;5.880;2024-02-28T05:45:27;18.95;;;9.98;;
77705;SDS011;66874;45.274;5.880;2024-02-28T05:47:52;16.13;;;9.90;;
77705;SDS011;66874;45.274;5.880;2024-02-28T05:50:17;20.73;;;9.98;;
77705;SDS011;66874;45.274;5.880;2024-02-28T05:52:43;18.75;;;9.43;;
77705;SDS011;66874;45.274;5.880;2024-02-28T05:55:08;17.35;;;10.10;;
77705;SDS011;66874;45.274;5.880;2024-02-28T05:57:34;20.00;;;10.43;;
77705;SDS011;66874;45.274;5.880;2024-02-28T05:59:59;18.13;;;10.27;;
77705;SDS011;66874;45.274;5.880;2024-02-28T06:02:24;17.88;;;9.20;;
77705;SDS011;66874;45.274;5.880;2024-02-28T06:04:50;20.52;;;10.13;;
77705;SDS011;66874;45.274;5.880;2024-02-28T06:07:15;20.80;;;10.68;;
77705;SDS011;66874;45.274;5.880;2024-02-28T06:09:41;20.30;;;9.75;;
77705;SDS011;66874;45.274;5.880;2024-02-28T06:12:06;19.38;;;10.02;;
77705;SDS011;66874;45.274;5.880;2024-02-28T06:14:32;23.92;;;10.68;;
77705;SDS011;66874;45.274;5.880;2024-02-28T06:16:57;19.20;;;10.77;;
77705;SDS011;66874;45.274;5.880;2024-02-28T06:19:22;18.60;;;11.02;;
77705;SDS011;66874;45.274;5.880;2024-02-28T06:21:48;16.95;;;9.85;;
77705;SDS011;66874;45.274;5.880;2024-02-28T06:24:13;21.10;;;10.85;;
77705;SDS011;66874;45.274;5.880;2024-02-28T06:26:39;19.08;;;9.85;;
77705;SDS011;66874;45.274;5.880;2024-02-28T06:29:06;22.95;;;11.35;;
77705;SDS011;66874;45.274;5.880;2024-02-28T06:31:32;20.98;;;11.38;;
77705;SDS011;66874;45.274;5.880;2024-02-28T06:33:58;20.15;;;11.85;;
77705;SDS011;66874;45.274;5.880;2024-02-28T06:36:23;19.92;;;10.13;;
77705;SDS011;66874;45.274;5.880;2024-02-28T06:38:48;21.20;;;10.80;;
77705;SDS011;66874;45.274;5.880;2024-02-28T06:41:14;20.88;;;12.40;;
77705;SDS011;66874;45.274;5.880;2024-02-28T06:43:39;18.45;;;10.07;;
77705;SDS011;66874;45.274;5.880;2024-02-28T06:46:05;17.23;;;9.82;;
77705;SDS011;66874;45.274;5.880;2024-02-28T06:48:30;17.95;;;10.63;;
77705;SDS011;66874;45.274;5.880;2024-02-28T06:50:56;19.35;;;11.00;;
77705;SDS011;66874;45.274;5.880;2024-02-28T06:53:22;18.75;;;10.98;;
77705;SDS011;66874;45.274;5.880;2024-02-28T06:55:48;21.52;;;11.30;;
77705;SDS011;66874;45.274;5.880;2024-02-28T06:58:14;19.40;;;11.23;;
77705;SDS011;66874;45.274;5.880;2024-02-28T07:00:39;23.13;;;11.60;;
77705;SDS011;66874;45.274;5.880;2024-02-28T07:03:05;23.40;;;11.30;;
77705;SDS011;66874;45.274;5.880;2024-02-28T07:05:30;21.13;;;11.10;;
77705;SDS011;66874;45.274;5.880;2024-02-28T07:07:56;19.60;;;11.25;;
77705;SDS011;66874;45.274;5.880;2024-02-28T07:10:21;17.92;;;10.77;;
77705;SDS011;66874;45.274;5.880;2024-02-28T07:12:48;21.35;;;10.90;;
77705;SDS011;66874;45.274;5.880;2024-02-28T07:15:14;20.20;;;10.27;;
77705;SDS011;66874;45.274;5.880;2024-02-28T07:17:39;22.45;;;11.68;;
77705;SDS011;66874;45.274;5.880;2024-02-28T07:20:05;21.17;;;11.48;;
77705;SDS011;66874;45.274;5.880;2024-02-28T07:22:31;23.33;;;12.02;;
77705;SDS011;66874;45.274;5.880;2024-02-28T07:24:57;21.85;;;11.20;;
77705;SDS011;66874;45.274;5.880;2024-02-28T07:27:22;23.02;;;12.10;;
77705;SDS011;66874;45.274;5.880;2024-02-28T07:29:49;23.30;;;11.70;;
77705;SDS011;66874;45.274;5.880;2024-02-28T07:32:14;20.27;;;10.63;;
77705;SDS011;66874;45.274;5.880;2024-02-28T07:34:40;20.42;;;11.77;;
77705;SDS011;66874;45.274;5.880;2024-02-28T07:37:05;22.10;;;10.82;;
77705;SDS011;66874;45.274;5.880;2024-02-28T07:39:30;23.38;;;11.98;;
77705;SDS011;66874;45.274;5.880;2024-02-28T07:41:56;23.38;;;12.88;;
77705;SDS011;66874;45.274;5.880;2024-02-28T07:44:21;22.20;;;11.95;;
77705;SDS011;66874;45.274;5.880;2024-02-28T07:46:46;22.60;;;12.18;;
77705;SDS011;66874;45.274;5.880;2024-02-28T07:49:12;23.42;;;12.05;;
77705;SDS011;66874;45.274;5.880;2024-02-28T07:51:38;32.17;;;13.63;;
77705;SDS011;66874;45.274;5.880;2024-02-28T07:54:05;27.52;;;13.60;;
77705;SDS011;66874;45.274;5.880;2024-02-28T07:56:31;22.67;;;12.32;;
77705;SDS011;66874;45.274;5.880;2024-02-28T07:58:57;20.45;;;11.55;;
77705;SDS011;66874;45.274;5.880;2024-02-28T08:01:22;21.65;;;12.73;;
77705;SDS011;66874;45.274;5.880;2024-02-28T08:03:47;28.30;;;12.73;;
77705;SDS011;66874;45.274;5.880;2024-02-28T08:06:13;24.38;;;13.38;;
77705;SDS011;66874;45.274;5.880;2024-02-28T08:08:38;25.80;;;12.93;;
77705;SDS011;66874;45.274;5.880;2024-02-28T08:11:03;22.10;;;12.80;;
77705;SDS011;66874;45.274;5.880;2024-02-28T08:13:29;23.38;;;13.15;;
77705;SDS011;66874;45.274;5.880;2024-02-28T08:15:55;27.50;;;13.40;;
77705;SDS011;66874;45.274;5.880;2024-02-28T08:18:21;25.25;;;13.52;;
77705;SDS011;66874;45.274;5.880;2024-02-28T08:20:46;24.63;;;13.02;;
77705;SDS011;66874;45.274;5.880;2024-02-28T08:23:12;27.33;;;13.43;;
77705;SDS011;66874;45.274;5.880;2024-02-28T08:25:37;30.98;;;14.18;;
77705;SDS011;66874;45.274;5.880;2024-02-28T08:28:03;28.45;;;12.75;;
77705;SDS011;66874;45.274;5.880;2024-02-28T08:30:29;28.80;;;13.65;;
77705;SDS011;66874;45.274;5.880;2024-02-28T08:32:54;26.63;;;13.57;;
77705;SDS011;66874;45.274;5.880;2024-02-28T08:35:19;24.75;;;13.43;;
77705;SDS011;66874;45.274;5.880;2024-02-28T08:37:45;24.95;;;13.70;;
77705;SDS011;66874;45.274;5.880;2024-02-28T08:40:10;29.33;;;14.68;;
77705;SDS011;66874;45.274;5.880;2024-02-28T08:42:36;26.38;;;13.10;;
77705;SDS011;66874;45.274;5.880;2024-02-28T08:45:02;29.48;;;14.65;;
77705;SDS011;66874;45.274;5.880;2024-02-28T08:47:28;26.15;;;13.75;;
77705;SDS011;66874;45.274;5.880;2024-02-28T08:49:54;25.13;;;13.15;;
77705;SDS011;66874;45.274;5.880;2024-02-28T08:52:20;27.25;;;14.45;;
77705;SDS011;66874;45.274;5.880;2024-02-28T08:54:46;28.80;;;14.33;;
77705;SDS011;66874;45.274;5.880;2024-02-28T08:57:12;25.70;;;14.00;;
77705;SDS011;66874;45.274;5.880;2024-02-28T08:59:38;31.52;;;13.50;;
77705;SDS011;66874;45.274;5.880;2024-02-28T09:02:05;26.70;;;14.98;;
77705;SDS011;66874;45.274;5.880;2024-02-28T09:04:30;24.30;;;13.60;;
77705;SDS011;66874;45.274;5.880;2024-02-28T09:06:56;25.55;;;13.48;;
77705;SDS011;66874;45.274;5.880;2024-02-28T09:09:22;27.35;;;15.30;;
77705;SDS011;66874;45.274;5.880;2024-02-28T09:11:47;33.50;;;14.23;;
77705;SDS011;66874;45.274;5.880;2024-02-28T09:14:13;32.15;;;13.82;;
77705;SDS011;66874;45.274;5.880;2024-02-28T09:16:38;27.23;;;13.00;;
77705;SDS011;66874;45.274;5.880;2024-02-28T09:19:04;33.63;;;14.77;;
77705;SDS011;66874;45.274;5.880;2024-02-28T09:21:29;24.50;;;12.48;;
77705;SDS011;66874;45.274;5.880;2024-02-28T09:23:55;20.95;;;11.13;;
77705;SDS011;66874;45.274;5.880;2024-02-28T09:26:20;23.88;;;12.05;;
77705;SDS011;66874;45.274;5.880;2024-02-28T09:28:46;21.35;;;10.90;;
77705;SDS011;66874;45.274;5.880;2024-02-28T09:31:11;27.42;;;11.52;;
77705;SDS011;66874;45.274;5.880;2024-02-28T09:33:37;22.33;;;13.02;;
77705;SDS011;66874;45.274;5.880;2024-02-28T09:36:02;23.90;;;12.07;;
77705;SDS011;66874;45.274;5.880;2024-02-28T09:38:28;20.95;;;11.52;;
77705;SDS011;66874;45.274;5.880;2024-02-28T09:40:54;26.27;;;11.73;;
77705;SDS011;66874;45.274;5.880;2024-02-28T09:43:40;23.42;;;12.80;;
77705;SDS011;66874;45.274;5.880;2024-02-28T09:46:07;25.70;;;12.25;;
77705;SDS011;66874;45.274;5.880;2024-02-28T09:48:36;23.92;;;12.70;;
77705;SDS011;66874;45.274;5.880;2024-02-28T09:51:04;27.80;;;12.65;;
77705;SDS011;66874;45.274;5.880;2024-02-28T09:53:30;24.38;;;11.70;;
77705;SDS011;66874;45.274;5.880;2024-02-28T09:55:56;26.15;;;12.27;;
77705;SDS011;66874;45.274;5.880;2024-02-28T09:58:21;25.58;;;12.40;;
77705;SDS011;66874;45.274;5.880;2024-02-28T10:00:48;25.55;;;13.95;;
77705;SDS011;66874;45.274;5.880;2024-02-28T10:03:16;30.10;;;16.17;;
77705;SDS011;66874;45.274;5.880;2024-02-28T10:05:48;28.42;;;13.43;;
77705;SDS011;66874;45.274;5.880;2024-02-28T10:08:14;25.70;;;12.98;;
77705;SDS011;66874;45.274;5.880;2024-02-28T10:10:49;26.23;;;13.85;;
77705;SDS011;66874;45.274;5.880;2024-02-28T10:13:19;24.33;;;12.93;;
77705;SDS011;66874;45.274;5.880;2024-02-28T10:15:44;24.42;;;12.73;;
77705;SDS011;66874;45.274;5.880;2024-02-28T10:18:10;25.52;;;13.50;;
77705;SDS011;66874;45.274;5.880;2024-02-28T10:20:36;23.50;;;12.88;;
77705;SDS011;66874;45.274;5.880;2024-02-28T10:23:04;26.23;;;14.35;;
77705;SDS011;66874;45.274;5.880;2024-02-28T10:25:44;28.05;;;13.40;;
77705;SDS011;66874;45.274;5.880;2024-02-28T10:28:11;24.73;;;13.30;;
77705;SDS011;66874;45.274;5.880;2024-02-28T10:30:40;24.92;;;13.27;;
77705;SDS011;66874;45.274;5.880;2024-02-28T10:33:10;22.92;;;12.90;;
77705;SDS011;66874;45.274;5.880;2024-02-28T10:35:37;25.85;;;13.55;;
77705;SDS011;66874;45.274;5.880;2024-02-28T10:38:02;28.50;;;14.50;;
77705;SDS011;66874;45.274;5.880;2024-02-28T10:40:28;27.42;;;13.55;;
77705;SDS011;66874;45.274;5.880;2024-02-28T10:42:54;27.48;;;15.55;;
77705;SDS011;66874;45.274;5.880;2024-02-28T10:45:22;22.85;;;12.48;;
77705;SDS011;66874;45.274;5.880;2024-02-28T10:47:50;28.80;;;13.73;;
77705;SDS011;66874;45.274;5.880;2024-02-28T10:50:16;28.52;;;14.13;;
77705;SDS011;66874;45.274;5.880;2024-02-28T10:52:45;27.25;;;13.50;;
77705;SDS011;66874;45.274;5.880;2024-02-28T10:55:17;37.33;;;14.65;;
77705;SDS011;66874;45.274;5.880;2024-02-28T10:57:46;31.15;;;14.75;;
77705;SDS011;66874;45.274;5.880;2024-02-28T11:00:18;31.17;;;14.80;;
77705;SDS011;66874;45.274;5.880;2024-02-28T11:02:44;27.05;;;14.32;;
77705;SDS011;66874;45.274;5.880;2024-02-28T11:05:10;24.75;;;12.68;;
77705;SDS011;66874;45.274;5.880;2024-02-28T11:07:40;28.55;;;14.73;;
77705;SDS011;66874;45.274;5.880;2024-02-28T11:10:06;30.25;;;14.85;;
77705;SDS011;66874;45.274;5.880;2024-02-28T11:12:32;30.15;;;14.65;;
77705;SDS011;66874;45.274;5.880;2024-02-28T11:15:01;34.08;;;15.18;;
77705;SDS011;66874;45.274;5.880;2024-02-28T11:17:31;28.17;;;14.15;;
77705;SDS011;66874;45.274;5.880;2024-02-28T11:19:58;32.33;;;15.93;;
77705;SDS011;66874;45.274;5.880;2024-02-28T11:22:23;27.02;;;14.40;;
77705;SDS011;66874;45.274;5.880;2024-02-28T11:24:49;26.67;;;13.88;;
77705;SDS011;66874;45.274;5.880;2024-02-28T11:27:18;26.88;;;14.20;;
77705;SDS011;66874;45.274;5.880;2024-02-28T11:29:43;28.90;;;13.73;;
77705;SDS011;66874;45.274;5.880;2024-02-28T11:32:11;26.13;;;14.20;;
77705;SDS011;66874;45.274;5.880;2024-02-28T11:34:40;28.52;;;14.55;;
77705;SDS011;66874;45.274;5.880;2024-02-28T11:37:06;32.45;;;16.17;;
77705;SDS011;66874;45.274;5.880;2024-02-28T11:39:33;29.48;;;14.48;;
77705;SDS011;66874;45.274;5.880;2024-02-28T11:42:15;25.95;;;14.30;;
77705;SDS011;66874;45.274;5.880;2024-02-28T11:44:41;34.10;;;16.30;;
77705;SDS011;66874;45.274;5.880;2024-02-28T11:47:10;28.17;;;14.30;;
77705;SDS011;66874;45.274;5.880;2024-02-28T11:49:39;27.17;;;13.80;;
77705;SDS011;66874;45.274;5.880;2024-02-28T11:52:05;30.50;;;14.10;;
77705;SDS011;66874;45.274;5.880;2024-02-28T11:54:31;28.17;;;13.60;;
77705;SDS011;66874;45.274;5.880;2024-02-28T11:56:56;25.23;;;13.35;;
77705;SDS011;66874;45.274;5.880;2024-02-28T11:59:22;31.98;;;14.85;;
77705;SDS011;66874;45.274;5.880;2024-02-28T12:01:47;31.20;;;14.18;;
77705;SDS011;66874;45.274;5.880;2024-02-28T12:04:13;30.77;;;15.70;;
77705;SDS011;66874;45.274;5.880;2024-02-28T12:06:39;26.92;;;13.23;;
77705;SDS011;66874;45.274;5.880;2024-02-28T12:09:06;29.48;;;13.90;;
77705;SDS011;66874;45.274;5.880;2024-02-28T12:11:35;29.17;;;14.18;;
77705;SDS011;66874;45.274;5.880;2024-02-28T12:14:08;31.00;;;15.05;;
77705;SDS011;66874;45.274;5.880;2024-02-28T12:16:36;30.50;;;14.10;;
77705;SDS011;66874;45.274;5.880;2024-02-28T12:19:12;27.92;;;13.95;;
77705;SDS011;66874;45.274;5.880;2024-02-28T12:21:43;26.23;;;13.57;;
77705;SDS011;66874;45.274;5.880;2024-02-28T12:24:09;28.55;;;15.00;;
77705;SDS011;66874;45.274;5.880;2024-02-28T12:26:36;26.70;;;12.83;;
77705;SDS011;66874;45.274;5.880;2024-02-28T12:29:02;25.45;;;13.07;;
77705;SDS011;66874;45.274;5.880;2024-02-28T12:31:28;35.05;;;14.43;;
77705;SDS011;66874;45.274;5.880;2024-02-28T12:33:53;29.75;;;12.85;;
77705;SDS011;66874;45.274;5.880;2024-02-28T12:36:19;31.10;;;14.45;;
77705;SDS011;66874;45.274;5.880;2024-02-28T12:38:45;30.55;;;14.98;;
77705;SDS011;66874;45.274;5.880;2024-02-28T12:41:11;31.63;;;14.65;;
77705;SDS011;66874;45.274;5.880;2024-02-28T12:43:36;32.05;;;14.63;;
77705;SDS011;66874;45.274;5.880;2024-02-28T12:46:02;32.85;;;14.95;;
77705;SDS011;66874;45.274;5.880;2024-02-28T12:48:27;30.25;;;15.30;;
77705;SDS011;66874;45.274;5.880;2024-02-28T12:50:54;33.45;;;15.35;;
77705;SDS011;66874;45.274;5.880;2024-02-28T12:53:19;32.83;;;15.90;;
77705;SDS011;66874;45.274;5.880;2024-02-28T12:55:45;27.77;;;13.73;;
77705;SDS011;66874;45.274;5.880;2024-02-28T12:58:10;33.20;;;15.15;;
77705;SDS011;66874;45.274;5.880;2024-02-28T13:00:36;31.65;;;14.85;;
77705;SDS011;66874;45.274;5.880;2024-02-28T13:03:02;27.75;;;14.07;;
77705;SDS011;66874;45.274;5.880;2024-02-28T13:05:28;34.78;;;16.02;;
77705;SDS011;66874;45.274;5.880;2024-02-28T13:07:53;31.38;;;15.63;;
77705;SDS011;66874;45.274;5.880;2024-02-28T13:10:19;33.45;;;14.48;;
77705;SDS011;66874;45.274;5.880;2024-02-28T13:12:44;31.08;;;14.55;;
77705;SDS011;66874;45.274;5.880;2024-02-28T13:15:09;33.65;;;14.63;;
77705;SDS011;66874;45.274;5.880;2024-02-28T13:17:35;32.22;;;14.88;;
77705;SDS011;66874;45.274;5.880;2024-02-28T13:20:01;30.30;;;15.13;;
77705;SDS011;66874;45.274;5.880;2024-02-28T13:22:28;29.35;;;14.82;;
77705;SDS011;66874;45.274;5.880;2024-02-28T13:24:53;29.40;;;14.05;;
77705;SDS011;66874;45.274;5.880;2024-02-28T13:27:19;29.42;;;14.25;;
77705;SDS011;66874;45.274;5.880;2024-02-28T13:29:45;32.25;;;16.40;;
77705;SDS011;66874;45.274;5.880;2024-02-28T13:32:10;32.88;;;15.68;;
77705;SDS011;66874;45.274;5.880;2024-02-28T13:34:35;28.20;;;14.43;;
77705;SDS011;66874;45.274;5.880;2024-02-28T13:37:01;30.50;;;14.15;;
77705;SDS011;66874;45.274;5.880;2024-02-28T13:39:26;28.05;;;14.13;;
77705;SDS011;66874;45.274;5.880;2024-02-28T13:41:52;31.02;;;14.00;;
77705;SDS011;66874;45.274;5.880;2024-02-28T13:44:18;31.20;;;13.90;;
77705;SDS011;66874;45.274;5.880;2024-02-28T13:46:44;35.30;;;15.48;;
77705;SDS011;66874;45.274;5.880;2024-02-28T13:49:10;28.85;;;15.07;;
77705;SDS011;66874;45.274;5.880;2024-02-28T13:51:37;36.20;;;15.07;;
77705;SDS011;66874;45.274;5.880;2024-02-28T13:54:02;30.35;;;14.77;;
77705;SDS011;66874;45.274;5.880;2024-02-28T13:56:28;34.97;;;14.63;;
77705;SDS011;66874;45.274;5.880;2024-02-28T13:58:55;34.97;;;14.60;;
77705;SDS011;66874;45.274;5.880;2024-02-28T14:01:21;32.17;;;14.23;;
77705;SDS011;66874;45.274;5.880;2024-02-28T14:03:46;33.08;;;13.88;;
77705;SDS011;66874;45.274;5.880;2024-02-28T14:06:12;31.52;;;15.20;;
77705;SDS011;66874;45.274;5.880;2024-02-28T14:08:38;30.63;;;15.65;;
77705;SDS011;66874;45.274;5.880;2024-02-28T14:11:04;28.67;;;14.15;;
77705;SDS011;66874;45.274;5.880;2024-02-28T14:13:30;31.95;;;15.10;;
77705;SDS011;66874;45.274;5.880;2024-02-28T14:15:55;35.85;;;15.20;;
77705;SDS011;66874;45.274;5.880;2024-02-28T14:18:21;34.42;;;15.63;;